Terminal Aerodrome Forecast
Issued by NWS

Home | Current Version | Previous Version | Text Only | Print | Product List | Glossary On
Versions: 1 2 3 4 5 6 7 8 9 10 11 12
000
FTUS42 TJSJ 281124
TAFJMZ
TAF
TJMZ 281124Z 2812/2912 00000KT P6SM FEW060
     FM281630 27010KT P6SM VCTS BKN030CB
     FM282300 06005KT P6SM SCT060
      AMD NOT SKED=

USA.gov is the U.S. government's official web portal to all federal, state and local government web resources and services.